createdAt,value
2022-12-31T00:01:51.380Z,12.10
2022-12-31T00:04:18.322Z,12.10
2022-12-31T00:06:45.911Z,12.20
2022-12-31T00:09:12.633Z,12.20
2022-12-31T00:11:39.526Z,12.30
2022-12-31T00:14:06.531Z,12.30
2022-12-31T00:16:38.975Z,12.30
2022-12-31T00:19:07.930Z,12.20
2022-12-31T00:21:34.817Z,12.10
2022-12-31T00:24:02.673Z,12.10
2022-12-31T00:26:31.464Z,12.00
2022-12-31T00:28:59.575Z,12.00
2022-12-31T00:31:28.856Z,12.00
2022-12-31T00:33:56.203Z,12.00
2022-12-31T00:36:28.295Z,12.10
2022-12-31T00:38:56.701Z,12.20
2022-12-31T00:41:25.268Z,12.20
2022-12-31T00:43:52.168Z,12.20
2022-12-31T00:46:19.722Z,12.20
2022-12-31T00:48:46.941Z,12.30
2022-12-31T00:51:16.131Z,12.30
2022-12-31T00:53:43.857Z,12.30
2022-12-31T00:56:13.335Z,12.40
2022-12-31T00:58:40.594Z,12.30
2022-12-31T01:01:20.239Z,12.40
2022-12-31T01:03:48.710Z,12.50
2022-12-31T01:06:15.917Z,12.50
2022-12-31T01:08:42.820Z,12.50
2022-12-31T01:11:24.303Z,12.60
2022-12-31T01:14:14.252Z,12.60
2022-12-31T01:16:49.410Z,12.60
2022-12-31T01:19:19.804Z,12.60
2022-12-31T01:21:47.562Z,12.70
2022-12-31T01:24:14.977Z,12.70
2022-12-31T01:26:41.939Z,12.80
2022-12-31T01:29:10.103Z,12.80
2022-12-31T01:31:38.275Z,12.70
2022-12-31T01:34:06.245Z,12.70
2022-12-31T01:36:34.337Z,12.70
2022-12-31T01:39:02.376Z,12.70
2022-12-31T01:41:37.422Z,12.70
2022-12-31T01:44:26.929Z,12.70
2022-12-31T01:46:59.455Z,12.60
2022-12-31T01:49:34.566Z,12.50
2022-12-31T01:52:10.643Z,12.40
2022-12-31T01:54:46.243Z,12.30
2022-12-31T01:57:14.131Z,12.20
2022-12-31T01:59:41.794Z,12.10
2022-12-31T02:02:08.654Z,12.10
2022-12-31T02:04:35.450Z,12.10
2022-12-31T02:07:07.821Z,12.00
2022-12-31T02:09:38.055Z,12.10
2022-12-31T02:12:05.634Z,12.10
2022-12-31T02:14:35.740Z,12.10
2022-12-31T02:17:27.903Z,12.10
2022-12-31T02:20:28.045Z,12.10
2022-12-31T02:23:48.895Z,12.10
2022-12-31T02:26:30.557Z,12.10
2022-12-31T02:29:37.037Z,12.20
2022-12-31T02:32:13.372Z,12.20
2022-12-31T02:34:52.716Z,12.20
2022-12-31T02:37:22.768Z,12.30
2022-12-31T02:39:49.786Z,12.40
2022-12-31T02:42:16.413Z,12.50
2022-12-31T02:44:43.761Z,12.60
2022-12-31T02:47:28.623Z,12.60
2022-12-31T02:50:11.298Z,12.60
2022-12-31T02:53:02.166Z,12.50
2022-12-31T02:55:58.986Z,12.40
2022-12-31T02:59:07.052Z,12.40
2022-12-31T03:01:57.740Z,12.30
2022-12-31T03:04:32.395Z,12.20
2022-12-31T03:07:09.473Z,12.10
2022-12-31T03:09:36.985Z,12.20
2022-12-31T03:12:25.721Z,12.20
2022-12-31T03:14:53.121Z,12.20
2022-12-31T03:17:20.001Z,12.20
2022-12-31T03:20:05.490Z,12.20
2022-12-31T03:22:36.325Z,12.30
2022-12-31T03:25:32.409Z,12.60
2022-12-31T03:28:00.798Z,13.10
2022-12-31T03:30:28.566Z,13.50
2022-12-31T03:32:56.343Z,13.70
2022-12-31T03:35:23.876Z,13.80
2022-12-31T03:37:52.047Z,14.00
2022-12-31T03:40:21.864Z,14.10
2022-12-31T03:42:48.596Z,14.20
2022-12-31T03:45:15.691Z,14.10
2022-12-31T03:47:42.675Z,14.10
2022-12-31T03:50:11.305Z,14.20
2022-12-31T03:52:38.394Z,14.30
2022-12-31T03:55:05.981Z,14.30
2022-12-31T03:57:33.375Z,14.30
2022-12-31T04:00:00.256Z,14.30
2022-12-31T04:02:29.202Z,14.40
2022-12-31T04:04:56.325Z,14.40
2022-12-31T04:07:23.766Z,14.40
2022-12-31T04:09:50.531Z,14.50
2022-12-31T04:12:17.267Z,14.50
2022-12-31T04:14:44.166Z,14.50
2022-12-31T04:17:11.041Z,14.50
2022-12-31T04:19:38.084Z,14.50
2022-12-31T04:22:05.148Z,14.50
2022-12-31T04:24:32.040Z,14.50
2022-12-31T04:27:05.359Z,14.40
2022-12-31T04:29:34.834Z,14.40
2022-12-31T04:32:01.880Z,14.30
2022-12-31T04:34:28.701Z,14.30
2022-12-31T04:36:55.372Z,14.30
2022-12-31T04:39:22.251Z,14.30
2022-12-31T04:41:50.220Z,14.40
2022-12-31T04:44:17.363Z,14.50
2022-12-31T04:46:44.658Z,14.40
2022-12-31T04:49:12.155Z,14.50
2022-12-31T04:51:39.417Z,14.50
2022-12-31T04:54:06.765Z,14.50
2022-12-31T04:56:36.611Z,14.40
2022-12-31T04:59:04.633Z,14.40
2022-12-31T05:01:31.707Z,14.40
2022-12-31T05:03:58.805Z,14.40
2022-12-31T05:06:25.594Z,14.40
2022-12-31T05:08:52.905Z,14.30
2022-12-31T05:11:20.205Z,14.40
2022-12-31T05:13:46.945Z,14.50
2022-12-31T05:16:13.893Z,14.40
2022-12-31T05:18:40.887Z,14.40
2022-12-31T05:21:08.263Z,14.40
2022-12-31T05:23:35.448Z,14.40
2022-12-31T05:26:02.288Z,14.30
2022-12-31T05:28:29.057Z,14.30
2022-12-31T05:30:56.157Z,14.40
2022-12-31T05:33:23.085Z,14.30
2022-12-31T05:35:50.292Z,14.30
2022-12-31T05:38:17.097Z,14.20
2022-12-31T05:40:44.447Z,14.20
2022-12-31T05:43:11.606Z,14.20
2022-12-31T05:45:38.420Z,14.20
2022-12-31T05:48:06.325Z,14.20
2022-12-31T05:50:33.270Z,14.30
2022-12-31T05:53:04.146Z,14.20
2022-12-31T05:55:30.857Z,14.30
2022-12-31T05:57:58.201Z,14.30
2022-12-31T06:00:24.944Z,14.30
2022-12-31T06:02:51.924Z,14.30
2022-12-31T06:05:25.709Z,14.40
2022-12-31T06:07:53.044Z,14.40
2022-12-31T06:10:20.296Z,14.40
2022-12-31T06:12:47.185Z,14.40
2022-12-31T06:15:13.988Z,14.40
2022-12-31T06:17:41.225Z,14.40
2022-12-31T06:20:12.763Z,14.50
2022-12-31T06:22:40.236Z,14.40
2022-12-31T06:25:07.250Z,14.50
2022-12-31T06:27:34.502Z,14.50
2022-12-31T06:30:01.354Z,14.60
2022-12-31T06:32:28.129Z,14.60
2022-12-31T06:34:54.935Z,14.60
2022-12-31T06:37:22.161Z,14.60
2022-12-31T06:39:49.217Z,14.70
2022-12-31T06:42:16.315Z,14.70
2022-12-31T06:44:43.130Z,14.70
2022-12-31T06:47:10.429Z,14.70
2022-12-31T06:49:37.641Z,14.70
2022-12-31T06:52:04.554Z,14.80
2022-12-31T06:54:31.599Z,14.80
2022-12-31T06:56:58.930Z,14.80
2022-12-31T06:59:29.302Z,14.80
2022-12-31T07:02:05.782Z,14.90
2022-12-31T07:04:58.543Z,15.00
2022-12-31T07:07:33.402Z,15.10
2022-12-31T07:10:06.248Z,15.10
2022-12-31T07:12:51.845Z,15.20
2022-12-31T07:15:41.982Z,15.10
2022-12-31T07:18:21.563Z,15.10
2022-12-31T07:20:48.863Z,15.20
2022-12-31T07:23:16.498Z,15.20
2022-12-31T07:26:06.676Z,15.10
2022-12-31T07:29:11.883Z,15.10
2022-12-31T07:31:53.856Z,15.10
2022-12-31T07:34:45.743Z,15.20
2022-12-31T07:37:27.279Z,15.20
2022-12-31T07:40:45.990Z,15.20
2022-12-31T07:43:35.597Z,15.20
2022-12-31T07:46:11.964Z,15.10
2022-12-31T07:48:39.117Z,15.20
2022-12-31T07:51:06.279Z,15.20
2022-12-31T07:53:33.299Z,15.20
2022-12-31T07:56:02.473Z,15.20
2022-12-31T07:58:40.727Z,15.20
2022-12-31T08:01:16.908Z,15.20
2022-12-31T08:03:55.494Z,15.20
2022-12-31T08:06:55.556Z,15.30
2022-12-31T08:09:42.767Z,15.30
2022-12-31T08:12:09.890Z,15.30
2022-12-31T08:14:47.792Z,15.30
2022-12-31T08:17:17.580Z,15.30
2022-12-31T08:19:46.221Z,15.30
2022-12-31T08:22:23.212Z,15.30
2022-12-31T08:25:05.260Z,15.30
2022-12-31T08:27:40.341Z,15.30
2022-12-31T08:30:13.286Z,15.40
2022-12-31T08:33:24.682Z,15.40
2022-12-31T08:36:16.452Z,15.30
2022-12-31T08:39:07.162Z,15.30
2022-12-31T08:41:48.354Z,15.40
2022-12-31T08:44:45.064Z,15.40
2022-12-31T08:47:43.095Z,15.50
2022-12-31T08:50:15.833Z,15.40
2022-12-31T08:52:43.139Z,15.40
2022-12-31T08:55:18.100Z,15.40
2022-12-31T08:57:54.071Z,15.40
2022-12-31T09:00:22.008Z,15.40
2022-12-31T09:02:54.751Z,15.50
2022-12-31T09:05:44.574Z,15.50
2022-12-31T09:08:36.085Z,15.50
2022-12-31T09:11:19.136Z,15.50
2022-12-31T09:14:25.838Z,15.50
2022-12-31T09:17:12.720Z,15.60
2022-12-31T09:19:39.431Z,15.60
2022-12-31T09:22:06.188Z,15.60
2022-12-31T09:24:33.024Z,15.70
2022-12-31T09:27:27.973Z,15.60
2022-12-31T09:30:04.789Z,15.60
2022-12-31T09:33:00.368Z,15.60
2022-12-31T09:35:50.891Z,15.70
2022-12-31T09:38:26.462Z,15.70
2022-12-31T09:41:15.931Z,15.70
2022-12-31T09:44:01.469Z,15.70
2022-12-31T09:47:22.014Z,15.80
2022-12-31T09:49:51.738Z,15.80
2022-12-31T09:52:39.883Z,15.80
2022-12-31T09:55:12.607Z,15.80
2022-12-31T09:57:55.962Z,15.90
2022-12-31T10:00:30.875Z,15.90
2022-12-31T10:03:16.280Z,16.00
2022-12-31T10:05:59.370Z,16.00
2022-12-31T10:08:52.643Z,16.00
2022-12-31T10:11:43.963Z,16.00
2022-12-31T10:14:27.164Z,16.10
2022-12-31T10:17:14.700Z,16.00
2022-12-31T10:20:00.404Z,16.10
2022-12-31T10:22:45.018Z,16.00
2022-12-31T10:25:43.581Z,16.00
2022-12-31T10:28:49.829Z,16.00
2022-12-31T10:31:37.286Z,15.90
2022-12-31T10:34:14.485Z,15.80
2022-12-31T10:37:16.711Z,15.80
2022-12-31T10:39:58.383Z,15.80
2022-12-31T10:43:11.353Z,15.80
2022-12-31T10:46:05.878Z,15.90
2022-12-31T10:48:58.942Z,15.90
2022-12-31T10:51:50.123Z,15.90
2022-12-31T10:54:38.060Z,15.90
2022-12-31T10:57:32.443Z,15.90
2022-12-31T11:00:07.543Z,15.90
2022-12-31T11:03:04.429Z,16.00
2022-12-31T11:05:42.970Z,15.90
2022-12-31T11:08:28.368Z,15.90
2022-12-31T11:11:13.728Z,15.90
2022-12-31T11:14:01.934Z,15.90
2022-12-31T11:16:35.800Z,15.90
2022-12-31T11:19:16.917Z,15.90
2022-12-31T11:22:29.912Z,15.90
2022-12-31T11:25:11.810Z,16.00
2022-12-31T11:28:02.386Z,16.00
2022-12-31T11:30:56.003Z,16.00
2022-12-31T11:33:34.875Z,16.00
2022-12-31T11:36:30.117Z,16.10
2022-12-31T11:39:31.514Z,16.10
2022-12-31T11:42:24.542Z,16.20
2022-12-31T11:45:12.235Z,16.20
2022-12-31T11:48:04.269Z,16.20
2022-12-31T11:50:52.578Z,16.20
2022-12-31T11:53:33.515Z,16.30
2022-12-31T11:56:22.973Z,16.30
2022-12-31T11:58:55.974Z,16.30
2022-12-31T12:01:40.300Z,16.30
2022-12-31T12:04:10.596Z,16.40
2022-12-31T12:06:37.246Z,16.60
2022-12-31T12:09:07.462Z,16.50
2022-12-31T12:11:40.657Z,16.60
2022-12-31T12:14:32.533Z,16.60
2022-12-31T12:17:04.839Z,16.60
2022-12-31T12:19:34.095Z,16.60
2022-12-31T12:22:10.956Z,16.60
2022-12-31T12:24:37.639Z,16.70
2022-12-31T12:27:04.840Z,16.70
2022-12-31T12:29:35.129Z,16.70
2022-12-31T12:32:06.079Z,16.60
2022-12-31T12:34:41.901Z,16.60
2022-12-31T12:37:32.173Z,16.60
2022-12-31T12:40:20.137Z,16.60
2022-12-31T12:42:52.181Z,16.50
2022-12-31T12:45:25.319Z,16.50
2022-12-31T12:48:00.914Z,16.40
2022-12-31T12:50:42.687Z,16.40
2022-12-31T12:53:19.002Z,16.30
2022-12-31T12:56:19.638Z,16.30
2022-12-31T12:59:19.818Z,16.40
2022-12-31T13:02:03.288Z,16.40
2022-12-31T13:04:46.610Z,16.30
2022-12-31T13:07:24.191Z,16.30
2022-12-31T13:10:28.583Z,16.30
2022-12-31T13:13:26.017Z,16.30
2022-12-31T13:15:57.349Z,16.30
2022-12-31T13:18:41.509Z,16.30
2022-12-31T13:21:26.433Z,16.30
2022-12-31T13:24:26.676Z,16.30
2022-12-31T13:27:04.524Z,16.40
2022-12-31T13:29:34.470Z,16.40
2022-12-31T13:32:04.619Z,16.30
2022-12-31T13:34:40.086Z,16.30
2022-12-31T13:37:35.219Z,16.20
2022-12-31T13:40:26.749Z,16.20
2022-12-31T13:43:05.768Z,16.10
2022-12-31T13:45:39.111Z,15.90
2022-12-31T13:48:12.881Z,15.90
2022-12-31T13:50:47.733Z,15.80
2022-12-31T13:53:19.887Z,15.70
2022-12-31T13:55:57.690Z,15.80
2022-12-31T13:58:35.853Z,15.90
2022-12-31T14:01:20.922Z,15.90
2022-12-31T14:04:07.837Z,15.90
2022-12-31T14:06:43.994Z,15.90
2022-12-31T14:09:18.649Z,16.00
2022-12-31T14:12:03.663Z,16.10
2022-12-31T14:14:51.230Z,16.10
2022-12-31T14:17:40.629Z,16.10
2022-12-31T14:20:25.164Z,16.10
2022-12-31T14:23:06.680Z,16.20
2022-12-31T14:25:36.887Z,16.30
2022-12-31T14:28:06.289Z,16.30
2022-12-31T14:30:39.432Z,16.30
2022-12-31T14:33:36.691Z,16.30
2022-12-31T14:36:19.628Z,16.20
2022-12-31T14:38:55.109Z,16.30
2022-12-31T14:41:57.825Z,16.30
2022-12-31T14:44:40.455Z,16.30
2022-12-31T14:47:15.977Z,16.30
2022-12-31T14:50:03.791Z,16.30
2022-12-31T14:52:46.536Z,16.30
2022-12-31T14:55:29.664Z,16.30
2022-12-31T14:58:27.715Z,16.20
2022-12-31T15:01:03.015Z,16.20
2022-12-31T15:03:44.951Z,16.20
2022-12-31T15:06:18.429Z,16.20
2022-12-31T15:09:22.171Z,16.20
2022-12-31T15:12:00.778Z,16.20
2022-12-31T15:14:45.523Z,16.20
2022-12-31T15:17:21.290Z,16.10
2022-12-31T15:20:16.499Z,16.10
2022-12-31T15:22:46.129Z,16.10
2022-12-31T15:25:40.118Z,16.00
2022-12-31T15:28:23.098Z,15.90
2022-12-31T15:30:50.571Z,15.80
2022-12-31T15:33:34.296Z,15.90
2022-12-31T15:36:18.388Z,15.90
2022-12-31T15:38:45.749Z,15.90
2022-12-31T15:42:18.778Z,15.90
2022-12-31T15:44:57.504Z,15.80
2022-12-31T15:47:28.871Z,15.80
2022-12-31T15:49:58.071Z,15.70
2022-12-31T15:52:36.301Z,15.60
2022-12-31T15:55:05.837Z,15.60
2022-12-31T15:57:37.676Z,15.50
2022-12-31T16:00:17.074Z,15.40
2022-12-31T16:02:44.864Z,15.40
2022-12-31T16:05:23.715Z,15.30
2022-12-31T16:07:56.295Z,15.30
2022-12-31T16:10:30.071Z,15.30
2022-12-31T16:12:58.586Z,15.20
2022-12-31T16:15:31.380Z,15.20
2022-12-31T16:18:20.603Z,15.10
2022-12-31T16:20:51.576Z,15.10
2022-12-31T16:23:24.394Z,15.20
2022-12-31T16:25:54.397Z,15.20
2022-12-31T16:28:26.385Z,15.20
2022-12-31T16:31:06.651Z,15.20
2022-12-31T16:33:33.611Z,15.20
2022-12-31T16:36:02.300Z,15.10
2022-12-31T16:38:37.071Z,15.20
2022-12-31T16:41:17.837Z,15.20
2022-12-31T16:43:46.724Z,15.30
2022-12-31T16:46:22.731Z,15.30
2022-12-31T16:49:00.832Z,15.30
2022-12-31T16:51:31.616Z,15.40
2022-12-31T16:54:01.398Z,15.40
2022-12-31T16:56:39.143Z,15.50
2022-12-31T16:59:29.308Z,15.70
2022-12-31T17:02:02.066Z,15.70
2022-12-31T17:04:28.876Z,15.70
2022-12-31T17:07:15.647Z,15.70
2022-12-31T17:09:42.257Z,15.60
2022-12-31T17:12:16.545Z,15.50
2022-12-31T17:14:49.721Z,15.50
2022-12-31T17:17:30.215Z,15.60
2022-12-31T17:20:00.579Z,15.60
2022-12-31T17:22:40.054Z,15.50
2022-12-31T17:25:22.095Z,15.50
2022-12-31T17:28:07.616Z,15.50
2022-12-31T17:30:34.893Z,15.50
2022-12-31T17:33:24.337Z,15.50
2022-12-31T17:36:19.079Z,15.50
2022-12-31T17:38:45.920Z,15.50
2022-12-31T17:41:23.145Z,15.50
2022-12-31T17:43:57.444Z,15.40
2022-12-31T17:46:25.495Z,15.30
2022-12-31T17:48:57.663Z,15.40
2022-12-31T17:51:24.853Z,15.50
2022-12-31T17:53:51.923Z,15.60
2022-12-31T17:56:20.336Z,15.50
2022-12-31T17:58:54.243Z,15.50
2022-12-31T18:01:23.004Z,15.40
2022-12-31T18:03:50.075Z,15.40
2022-12-31T18:06:19.229Z,15.30
2022-12-31T18:08:45.945Z,15.20
2022-12-31T18:11:18.588Z,15.20
2022-12-31T18:13:45.672Z,15.20
2022-12-31T18:16:12.436Z,15.20
2022-12-31T18:18:39.871Z,15.20
2022-12-31T18:21:13.122Z,15.20
2022-12-31T18:23:48.621Z,15.20
2022-12-31T18:26:23.626Z,15.20
2022-12-31T18:28:51.181Z,15.10
2022-12-31T18:31:26.604Z,15.10
2022-12-31T18:33:55.241Z,15.00
2022-12-31T18:36:22.548Z,15.00
2022-12-31T18:38:49.717Z,15.00
2022-12-31T18:41:21.099Z,15.00
2022-12-31T18:43:47.927Z,15.00
2022-12-31T18:46:17.867Z,15.10
2022-12-31T18:48:44.948Z,15.10
2022-12-31T18:51:20.508Z,15.10
2022-12-31T18:53:47.396Z,15.10
2022-12-31T18:56:17.434Z,15.10
2022-12-31T18:58:45.396Z,15.10
2022-12-31T19:01:28.778Z,15.10
2022-12-31T19:03:58.257Z,15.10
2022-12-31T19:06:25.505Z,15.10
2022-12-31T19:08:52.207Z,15.10
2022-12-31T19:11:19.167Z,15.10
2022-12-31T19:13:45.877Z,15.10
2022-12-31T19:16:13.783Z,15.10
2022-12-31T19:18:41.619Z,15.10
2022-12-31T19:21:19.436Z,15.10
2022-12-31T19:23:46.644Z,15.10
2022-12-31T19:26:18.568Z,15.20
2022-12-31T19:28:46.060Z,15.20
2022-12-31T19:31:12.816Z,15.20
2022-12-31T19:33:39.665Z,15.10
2022-12-31T19:36:12.622Z,15.10
2022-12-31T19:38:39.253Z,15.20
2022-12-31T19:41:05.879Z,15.20
2022-12-31T19:43:32.509Z,15.10
2022-12-31T19:46:02.710Z,15.10
2022-12-31T19:48:32.847Z,15.10
2022-12-31T19:50:59.919Z,15.00
2022-12-31T19:53:27.959Z,15.00
2022-12-31T19:55:54.742Z,15.00
2022-12-31T19:58:26.352Z,14.90
2022-12-31T20:01:02.452Z,14.90
2022-12-31T20:03:32.385Z,14.90
2022-12-31T20:06:07.683Z,15.00
2022-12-31T20:08:36.479Z,15.00
2022-12-31T20:11:21.240Z,15.00
2022-12-31T20:13:48.999Z,15.00
2022-12-31T20:16:18.530Z,15.10
2022-12-31T20:18:46.930Z,15.10
2022-12-31T20:21:17.742Z,15.00
2022-12-31T20:23:44.886Z,15.00
2022-12-31T20:26:11.825Z,15.00
2022-12-31T20:28:39.223Z,15.00
2022-12-31T20:31:19.028Z,15.00
2022-12-31T20:33:45.838Z,15.10
2022-12-31T20:36:16.878Z,15.10
2022-12-31T20:38:44.385Z,15.10
2022-12-31T20:41:16.926Z,15.20
2022-12-31T20:43:44.043Z,15.20
2022-12-31T20:46:18.723Z,15.10
2022-12-31T20:48:46.645Z,15.10
2022-12-31T20:51:14.794Z,15.10
2022-12-31T20:53:47.776Z,15.10
2022-12-31T20:56:14.541Z,15.30
2022-12-31T20:58:41.193Z,15.30
2022-12-31T21:01:09.583Z,15.30
2022-12-31T21:06:28.990Z,15.30
2022-12-31T21:08:58.299Z,15.30
2022-12-31T21:11:44.098Z,15.30
2022-12-31T21:14:10.953Z,15.40
2022-12-31T21:16:37.623Z,15.40
2022-12-31T21:19:05.289Z,15.40
2022-12-31T21:21:33.434Z,15.30
2022-12-31T21:24:00.074Z,15.40
2022-12-31T21:26:27.474Z,15.60
2022-12-31T21:28:54.230Z,15.60
2022-12-31T21:31:21.067Z,15.60
2022-12-31T21:33:48.393Z,15.50
2022-12-31T21:36:15.611Z,15.40
2022-12-31T21:38:43.906Z,15.50
2022-12-31T21:41:33.462Z,15.60
2022-12-31T21:44:01.225Z,15.50
2022-12-31T21:46:28.071Z,15.50
2022-12-31T21:48:56.897Z,15.40
2022-12-31T21:51:23.743Z,15.60
2022-12-31T21:53:50.684Z,15.50
2022-12-31T21:56:18.654Z,15.60
2022-12-31T21:59:07.812Z,15.60
2022-12-31T22:01:53.376Z,15.50
2022-12-31T22:04:59.806Z,15.50
2022-12-31T22:07:07.238Z,15.50
2022-12-31T22:09:36.824Z,15.50
2022-12-31T22:12:03.643Z,15.50
2022-12-31T22:14:30.625Z,15.50
2022-12-31T22:16:57.281Z,15.50
2022-12-31T22:19:24.581Z,15.60
2022-12-31T22:21:51.307Z,15.50
2022-12-31T22:24:17.959Z,15.50
2022-12-31T22:26:46.672Z,15.50
2022-12-31T22:29:13.732Z,15.50
2022-12-31T22:31:40.395Z,15.40
2022-12-31T22:34:07.549Z,15.30
2022-12-31T22:36:34.258Z,15.30
2022-12-31T22:39:00.886Z,15.40
2022-12-31T22:41:28.067Z,15.40
2022-12-31T22:44:02.967Z,15.40
2022-12-31T22:46:32.591Z,15.40
2022-12-31T22:49:00.868Z,15.40
2022-12-31T22:51:55.697Z,15.30
2022-12-31T22:54:15.736Z,15.30
2022-12-31T22:56:42.376Z,15.40
2022-12-31T22:59:09.565Z,15.40
2022-12-31T23:01:36.420Z,15.40
2022-12-31T23:04:03.810Z,15.40
2022-12-31T23:06:31.644Z,15.40
2022-12-31T23:09:17.378Z,15.30
2022-12-31T23:11:44.032Z,15.30
2022-12-31T23:14:38.459Z,15.30
2022-12-31T23:17:30.436Z,15.20
2022-12-31T23:20:18.040Z,15.20
2022-12-31T23:23:03.887Z,15.30
2022-12-31T23:25:33.328Z,15.30
2022-12-31T23:28:00.101Z,15.30
2022-12-31T23:30:26.816Z,15.30
2022-12-31T23:32:53.527Z,15.30
2022-12-31T23:35:20.212Z,15.30
2022-12-31T23:37:47.015Z,15.30
2022-12-31T23:40:20.606Z,15.30
2022-12-31T23:42:47.887Z,15.30
2022-12-31T23:45:14.641Z,15.30
2022-12-31T23:47:41.344Z,15.40
2022-12-31T23:50:08.644Z,15.30
2022-12-31T23:52:35.401Z,15.40
2022-12-31T23:55:03.512Z,15.40
2022-12-31T23:57:30.221Z,15.30
2022-12-31T23:59:56.974Z,15.30
